createdAt,value
2022-12-24T00:00:14.891Z,99195.78
2022-12-24T00:02:41.892Z,99193.16
2022-12-24T00:05:09.354Z,99207.97
2022-12-24T00:07:36.249Z,99206.47
2022-12-24T00:10:04.468Z,99219.41
2022-12-24T00:12:31.552Z,99207.16
2022-12-24T00:14:58.417Z,99224.00
2022-12-24T00:17:25.149Z,99221.53
2022-12-24T00:19:51.873Z,99229.50
2022-12-24T00:22:18.684Z,99216.63
2022-12-24T00:24:45.444Z,99216.03
2022-12-24T00:27:12.234Z,99218.59
2022-12-24T00:29:40.259Z,99224.47
2022-12-24T00:32:10.226Z,99225.34
2022-12-24T00:34:37.980Z,99216.72
2022-12-24T00:37:05.141Z,99206.69
2022-12-24T00:39:32.067Z,99223.00
2022-12-24T00:41:59.183Z,99224.44
2022-12-24T00:44:25.963Z,99223.69
2022-12-24T00:46:53.857Z,99225.75
2022-12-24T00:49:20.759Z,99231.50
2022-12-24T00:51:47.548Z,99239.22
2022-12-24T00:54:15.176Z,99239.81
2022-12-24T00:56:41.951Z,99243.97
2022-12-24T00:59:08.750Z,99230.91
2022-12-24T01:01:36.846Z,99234.09
2022-12-24T01:04:22.549Z,99228.94
2022-12-24T01:06:49.292Z,99237.03
2022-12-24T01:09:16.426Z,99235.06
2022-12-24T01:11:43.182Z,99216.66
2022-12-24T01:14:10.076Z,99206.38
2022-12-24T01:16:36.815Z,99212.53
2022-12-24T01:19:03.747Z,99222.41
2022-12-24T01:21:30.537Z,99221.09
2022-12-24T01:23:57.338Z,99225.88
2022-12-24T01:26:24.128Z,99220.38
2022-12-24T01:28:50.797Z,99206.53
2022-12-24T01:31:19.050Z,99199.38
2022-12-24T01:33:46.927Z,99206.78
2022-12-24T01:36:14.703Z,99198.06
2022-12-24T01:38:42.237Z,99205.44
2022-12-24T01:41:34.672Z,99197.09
2022-12-24T01:44:18.475Z,99176.38
2022-12-24T01:46:46.022Z,99186.19
2022-12-24T01:49:15.918Z,99186.53
2022-12-24T01:51:54.402Z,99189.69
2022-12-24T01:54:23.780Z,99194.25
2022-12-24T01:56:57.306Z,99195.22
2022-12-24T01:59:24.379Z,99207.75
2022-12-24T02:01:53.603Z,99199.06
2022-12-24T02:04:44.248Z,99214.13
2022-12-24T02:07:11.279Z,99204.25
2022-12-24T02:09:39.449Z,99208.63
2022-12-24T02:12:07.263Z,99235.22
2022-12-24T02:14:35.410Z,99236.81
2022-12-24T02:17:30.246Z,99222.47
2022-12-24T02:20:12.999Z,99232.03
2022-12-24T02:23:01.541Z,99217.50
2022-12-24T02:25:40.058Z,99215.22
2022-12-24T02:28:24.238Z,99230.28
2022-12-24T02:31:10.600Z,99215.72
2022-12-24T02:33:45.509Z,99228.66
2022-12-24T02:36:40.472Z,99223.56
2022-12-24T02:39:20.882Z,99222.34
2022-12-24T02:42:06.767Z,99222.59
2022-12-24T02:44:48.531Z,99238.03
2022-12-24T02:47:17.017Z,99246.91
2022-12-24T02:49:48.088Z,99238.19
2022-12-24T02:52:37.179Z,99240.19
2022-12-24T02:55:09.322Z,99233.53
2022-12-24T02:58:03.563Z,99227.25
2022-12-24T03:00:45.429Z,99232.41
2022-12-24T03:03:27.448Z,99249.19
2022-12-24T03:06:14.026Z,99253.75
2022-12-24T03:08:48.987Z,99255.59
2022-12-24T03:11:16.291Z,99243.97
2022-12-24T03:13:43.973Z,99249.94
2022-12-24T03:16:15.498Z,99253.13
2022-12-24T03:18:46.432Z,99253.13
2022-12-24T03:21:18.775Z,99243.16
2022-12-24T03:23:45.758Z,99246.44
2022-12-24T03:26:15.116Z,99251.19
2022-12-24T03:28:43.421Z,99252.56
2022-12-24T03:31:11.799Z,99264.66
2022-12-24T03:33:39.002Z,99258.88
2022-12-24T03:36:07.498Z,99262.31
2022-12-24T03:38:34.642Z,99249.28
2022-12-24T03:41:02.309Z,99256.44
2022-12-24T03:43:29.145Z,99264.59
2022-12-24T03:45:56.071Z,99276.69
2022-12-24T03:48:27.382Z,99281.66
2022-12-24T03:50:59.390Z,99284.25
2022-12-24T03:53:29.389Z,99289.78
2022-12-24T03:55:56.140Z,99298.88
2022-12-24T03:58:22.914Z,99292.91
2022-12-24T04:00:49.689Z,99294.09
2022-12-24T04:03:16.539Z,99306.53
2022-12-24T04:05:43.313Z,99306.72
2022-12-24T04:08:10.075Z,99308.69
2022-12-24T04:10:36.782Z,99305.47
2022-12-24T04:13:03.475Z,99312.81
2022-12-24T04:15:30.263Z,99303.69
2022-12-24T04:17:56.996Z,99304.84
2022-12-24T04:20:23.733Z,99315.69
2022-12-24T04:22:50.474Z,99321.41
2022-12-24T04:25:17.225Z,99311.28
2022-12-24T04:27:43.966Z,99316.69
2022-12-24T04:30:11.019Z,99317.53
2022-12-24T04:32:37.811Z,99317.03
2022-12-24T04:35:04.903Z,99325.88
2022-12-24T04:37:33.261Z,99340.09
2022-12-24T04:40:00.061Z,99340.56
2022-12-24T04:42:26.807Z,99340.06
2022-12-24T04:44:53.568Z,99340.69
2022-12-24T04:47:20.252Z,99345.69
2022-12-24T04:49:47.035Z,99348.25
2022-12-24T04:52:13.795Z,99335.75
2022-12-24T04:54:40.835Z,99351.31
2022-12-24T04:57:07.655Z,99348.13
2022-12-24T04:59:34.407Z,99349.72
2022-12-24T05:02:01.292Z,99344.78
2022-12-24T05:04:28.077Z,99341.78
2022-12-24T05:06:54.762Z,99347.75
2022-12-24T05:09:21.507Z,99345.53
2022-12-24T05:11:48.267Z,99353.69
2022-12-24T05:14:14.962Z,99354.94
2022-12-24T05:16:41.891Z,99346.22
2022-12-24T05:19:08.728Z,99353.97
2022-12-24T05:21:35.708Z,99366.25
2022-12-24T05:24:21.255Z,99364.28
2022-12-24T05:26:54.448Z,99373.75
2022-12-24T05:29:21.409Z,99372.16
2022-12-24T05:31:48.286Z,99371.16
2022-12-24T05:34:16.644Z,99368.56
2022-12-24T05:36:44.212Z,99373.53
2022-12-24T05:39:18.179Z,99369.50
2022-12-24T05:41:45.610Z,99374.06
2022-12-24T05:44:12.458Z,99370.03
2022-12-24T05:46:39.297Z,99374.41
2022-12-24T05:49:06.139Z,99373.06
2022-12-24T05:51:33.009Z,99386.00
2022-12-24T05:54:00.184Z,99388.22
2022-12-24T05:56:26.985Z,99402.53
2022-12-24T05:58:54.757Z,99400.75
2022-12-24T06:01:23.315Z,99421.59
2022-12-24T06:03:50.778Z,99422.38
2022-12-24T06:06:21.177Z,99425.16
2022-12-24T06:08:49.347Z,99431.09
2022-12-24T06:11:18.369Z,99441.25
2022-12-24T06:13:45.425Z,99443.81
2022-12-24T06:16:18.425Z,99441.16
2022-12-24T06:18:45.237Z,99439.56
2022-12-24T06:21:12.912Z,99438.59
2022-12-24T06:23:41.870Z,99433.59
2022-12-24T06:26:11.319Z,99442.16
2022-12-24T06:28:39.167Z,99445.72
2022-12-24T06:31:07.251Z,99456.03
2022-12-24T06:33:35.194Z,99458.03
2022-12-24T06:36:02.132Z,99462.00
2022-12-24T06:38:31.391Z,99462.16
2022-12-24T06:40:58.411Z,99472.91
2022-12-24T06:43:25.109Z,99481.91
2022-12-24T06:45:51.864Z,99491.47
2022-12-24T06:48:18.674Z,99487.56
2022-12-24T06:50:45.912Z,99471.91
2022-12-24T06:53:12.824Z,99480.13
2022-12-24T06:55:39.608Z,99483.41
2022-12-24T06:58:06.425Z,99487.03
2022-12-24T07:00:33.185Z,99484.53
2022-12-24T07:03:00.201Z,99477.66
2022-12-24T07:05:27.422Z,99486.03
2022-12-24T07:07:54.213Z,99491.66
2022-12-24T07:10:21.815Z,99490.88
2022-12-24T07:12:48.901Z,99497.25
2022-12-24T07:15:16.504Z,99493.09
2022-12-24T07:17:43.948Z,99498.06
2022-12-24T07:20:14.788Z,99510.81
2022-12-24T07:22:41.927Z,99521.94
2022-12-24T07:25:09.161Z,99517.78
2022-12-24T07:27:36.080Z,99528.72
2022-12-24T07:30:03.244Z,99533.09
2022-12-24T07:32:30.068Z,99539.63
2022-12-24T07:34:56.816Z,99545.03
2022-12-24T07:37:23.639Z,99543.81
2022-12-24T07:39:50.373Z,99551.41
2022-12-24T07:42:17.203Z,99560.56
2022-12-24T07:44:44.429Z,99561.97
2022-12-24T07:47:11.246Z,99564.38
2022-12-24T07:49:38.150Z,99567.94
2022-12-24T07:52:05.369Z,99565.94
2022-12-24T07:54:32.139Z,99562.78
2022-12-24T07:56:58.927Z,99555.44
2022-12-24T07:59:25.710Z,99561.03
2022-12-24T08:01:52.582Z,99567.84
2022-12-24T08:04:19.584Z,99584.22
2022-12-24T08:06:46.267Z,99591.78
2022-12-24T08:09:14.372Z,99589.22
2022-12-24T08:11:46.156Z,99584.84
2022-12-24T08:14:16.649Z,99606.53
2022-12-24T08:16:43.448Z,99612.94
2022-12-24T08:19:10.284Z,99615.53
2022-12-24T08:21:39.595Z,99633.22
2022-12-24T08:24:06.688Z,99622.66
2022-12-24T08:26:33.528Z,99630.84
2022-12-24T08:29:00.269Z,99630.06
2022-12-24T08:31:27.064Z,99643.00
2022-12-24T08:33:53.856Z,99647.16
2022-12-24T08:36:20.702Z,99645.59
2022-12-24T08:38:47.777Z,99636.78
2022-12-24T08:41:14.522Z,99635.34
2022-12-24T08:43:41.155Z,99634.56
2022-12-24T08:46:08.031Z,99639.97
2022-12-24T08:48:36.382Z,99655.50
2022-12-24T08:51:08.859Z,99651.94
2022-12-24T08:53:35.614Z,99657.91
2022-12-24T08:56:07.570Z,99665.84
2022-12-24T08:58:34.360Z,99668.63
2022-12-24T09:01:01.791Z,99679.34
2022-12-24T09:03:29.188Z,99669.75
2022-12-24T09:05:56.327Z,99666.13
2022-12-24T09:08:23.158Z,99670.91
2022-12-24T09:10:49.942Z,99667.09
2022-12-24T09:13:16.757Z,99668.91
2022-12-24T09:15:52.494Z,99677.50
2022-12-24T09:18:19.284Z,99674.28
2022-12-24T09:20:47.108Z,99679.69
2022-12-24T09:23:14.742Z,99687.88
2022-12-24T09:25:43.416Z,99692.47
2022-12-24T09:28:10.378Z,99693.06
2022-12-24T09:30:38.111Z,99697.28
2022-12-24T09:33:04.900Z,99710.19
2022-12-24T09:35:31.655Z,99703.41
2022-12-24T09:38:04.138Z,99703.19
2022-12-24T09:40:38.021Z,99712.72
2022-12-24T09:43:19.599Z,99716.69
2022-12-24T09:46:28.239Z,99706.28
2022-12-24T09:49:02.441Z,99720.47
2022-12-24T09:51:41.259Z,99727.19
2022-12-24T09:54:17.943Z,99725.63
2022-12-24T09:56:46.825Z,99730.88
2022-12-24T09:59:21.814Z,99732.88
2022-12-24T10:01:51.828Z,99722.41
2022-12-24T10:04:22.636Z,99733.88
2022-12-24T10:07:22.027Z,99722.34
2022-12-24T10:09:51.779Z,99725.06
2022-12-24T10:12:25.351Z,99725.53
2022-12-24T10:15:04.704Z,99732.47
2022-12-24T10:18:18.797Z,99727.94
2022-12-24T10:21:00.021Z,99723.66
2022-12-24T10:23:35.860Z,99728.66
2022-12-24T10:26:31.020Z,99736.03
2022-12-24T10:29:01.168Z,99737.44
2022-12-24T10:31:31.304Z,99742.75
2022-12-24T10:34:03.014Z,99743.38
2022-12-24T10:36:31.361Z,99749.31
2022-12-24T10:38:58.642Z,99748.44
2022-12-24T10:41:27.332Z,99742.59
2022-12-24T10:43:55.268Z,99744.53
2022-12-24T10:46:39.056Z,99748.66
2022-12-24T10:49:08.505Z,99744.81
2022-12-24T10:51:50.235Z,99744.69
2022-12-24T10:54:27.013Z,99747.28
2022-12-24T10:56:59.809Z,99742.50
2022-12-24T10:59:35.261Z,99748.16
2022-12-24T11:02:02.784Z,99748.94
2022-12-24T11:04:32.608Z,99744.41
2022-12-24T11:07:05.153Z,99750.13
2022-12-24T11:09:41.339Z,99759.19
2022-12-24T11:12:21.696Z,99756.84
2022-12-24T11:14:49.195Z,99750.03
2022-12-24T11:17:23.378Z,99761.47
2022-12-24T11:19:51.100Z,99759.56
2022-12-24T11:22:29.645Z,99771.41
2022-12-24T11:25:18.727Z,99788.28
2022-12-24T11:27:50.818Z,99786.06
2022-12-24T11:30:23.585Z,99776.59
2022-12-24T11:33:00.456Z,99781.59
2022-12-24T11:35:27.957Z,99768.56
2022-12-24T11:38:00.956Z,99757.97
2022-12-24T11:40:44.914Z,99766.88
2022-12-24T11:43:17.728Z,99767.25
2022-12-24T11:45:53.733Z,99771.28
2022-12-24T11:48:25.939Z,99762.63
2022-12-24T11:51:08.077Z,99755.69
2022-12-24T11:53:46.708Z,99757.19
2022-12-24T11:56:25.608Z,99752.91
2022-12-24T11:58:59.215Z,99762.91
2022-12-24T12:01:36.551Z,99750.91
2022-12-24T12:04:17.271Z,99748.44
2022-12-24T12:06:46.528Z,99758.72
2022-12-24T12:09:20.057Z,99762.25
2022-12-24T12:11:56.787Z,99764.91
2022-12-24T12:14:47.223Z,99772.16
2022-12-24T12:17:35.781Z,99773.19
2022-12-24T12:20:13.417Z,99770.13
2022-12-24T12:22:58.504Z,99787.19
2022-12-24T12:25:42.410Z,99784.16
2022-12-24T12:28:37.303Z,99778.72
2022-12-24T12:31:15.777Z,99778.47
2022-12-24T12:34:02.773Z,99784.09
2022-12-24T12:36:52.583Z,99796.72
2022-12-24T12:39:19.690Z,99790.00
2022-12-24T12:42:09.885Z,99790.22
2022-12-24T12:45:00.000Z,99799.50
2022-12-24T12:47:57.596Z,99795.72
2022-12-24T12:50:33.547Z,99795.88
2022-12-24T12:53:06.464Z,99794.88
2022-12-24T12:55:49.392Z,99798.97
2022-12-24T12:58:25.471Z,99797.59
2022-12-24T13:00:57.666Z,99806.56
2022-12-24T13:03:41.730Z,99812.56
2022-12-24T13:06:32.272Z,99807.31
2022-12-24T13:09:16.102Z,99807.31
2022-12-24T13:12:09.542Z,99815.38
2022-12-24T13:15:15.836Z,99820.41
2022-12-24T13:17:48.451Z,99827.03
2022-12-24T13:20:33.992Z,99824.31
2022-12-24T13:23:04.596Z,99837.47
2022-12-24T13:25:43.941Z,99832.81
2022-12-24T13:28:26.101Z,99851.00
2022-12-24T13:31:02.227Z,99862.41
2022-12-24T13:33:38.582Z,99863.84
2022-12-24T13:36:14.296Z,99883.06
2022-12-24T13:39:01.389Z,99879.91
2022-12-24T13:41:39.463Z,99884.66
2022-12-24T13:44:13.639Z,99882.63
2022-12-24T13:46:49.429Z,99884.97
2022-12-24T13:49:21.677Z,99895.22
2022-12-24T13:51:50.887Z,99902.75
2022-12-24T13:54:25.714Z,99905.53
2022-12-24T13:56:52.666Z,99920.28
2022-12-24T13:59:25.426Z,99918.09
2022-12-24T14:01:52.944Z,99928.28
2022-12-24T14:04:33.057Z,99927.09
2022-12-24T14:07:02.420Z,99930.31
2022-12-24T14:09:31.729Z,99927.44
2022-12-24T14:12:04.585Z,99923.09
2022-12-24T14:14:38.415Z,99929.66
2022-12-24T14:17:18.539Z,99930.31
2022-12-24T14:19:47.896Z,99932.25
2022-12-24T14:22:20.415Z,99936.69
2022-12-24T14:25:17.683Z,99940.78
2022-12-24T14:28:08.844Z,99945.94
2022-12-24T14:30:35.703Z,99950.34
2022-12-24T14:33:02.614Z,99955.97
2022-12-24T14:35:38.597Z,99945.44
2022-12-24T14:38:15.505Z,99962.69
2022-12-24T14:41:14.601Z,99967.75
2022-12-24T14:44:07.329Z,99968.25
2022-12-24T14:47:11.443Z,99981.88
2022-12-24T14:49:50.936Z,99983.53
2022-12-24T14:55:32.310Z,99977.16
2022-12-24T14:58:26.792Z,99978.97
2022-12-24T15:00:56.356Z,99980.34
2022-12-24T15:03:26.379Z,99986.53
2022-12-24T15:06:04.146Z,99988.34
2022-12-24T15:08:37.188Z,99998.56
2022-12-24T15:11:08.746Z,99995.75
2022-12-24T15:13:47.365Z,99999.53
2022-12-24T15:16:21.843Z,100003.53
2022-12-24T15:18:56.528Z,100005.53
2022-12-24T15:21:49.979Z,100002.53
2022-12-24T15:24:29.484Z,100017.06
2022-12-24T15:26:56.687Z,100019.06
2022-12-24T15:29:26.828Z,100010.66
2022-12-24T15:31:56.145Z,100010.63
2022-12-24T15:34:36.290Z,100013.22
2022-12-24T15:37:11.240Z,100015.03
2022-12-24T15:39:40.539Z,100018.16
2022-12-24T15:42:18.185Z,100029.78
2022-12-24T15:44:54.493Z,100028.94
2022-12-24T15:47:39.308Z,100032.53
2022-12-24T15:50:32.264Z,100036.50
2022-12-24T15:53:21.215Z,100046.34
2022-12-24T15:56:07.565Z,100043.75
2022-12-24T15:58:40.519Z,100046.59
2022-12-24T16:01:28.428Z,100050.97
2022-12-24T16:03:58.212Z,100050.19
2022-12-24T16:06:25.601Z,100054.22
2022-12-24T16:08:52.404Z,100062.41
2022-12-24T16:11:38.287Z,100061.41
2022-12-24T16:14:25.297Z,100061.75
2022-12-24T16:16:54.713Z,100073.56
2022-12-24T16:19:27.899Z,100082.16
2022-12-24T16:21:55.850Z,100085.28
2022-12-24T16:24:26.051Z,100083.41
2022-12-24T16:26:53.138Z,100089.97
2022-12-24T16:29:20.574Z,100092.59
2022-12-24T16:31:54.097Z,100087.00
2022-12-24T16:34:27.990Z,100089.00
2022-12-24T16:36:55.435Z,100087.44
2022-12-24T16:39:25.336Z,100095.00
2022-12-24T16:42:15.559Z,100101.81
2022-12-24T16:44:42.745Z,100107.00
2022-12-24T16:47:20.383Z,100108.19
2022-12-24T16:49:47.196Z,100112.63
2022-12-24T16:52:22.522Z,100107.97
2022-12-24T16:54:49.979Z,100111.81
2022-12-24T16:57:17.469Z,100118.63
2022-12-24T16:59:44.878Z,100122.19
2022-12-24T17:02:15.676Z,100120.00
2022-12-24T17:04:43.304Z,100120.00
2022-12-24T17:07:12.259Z,100125.78
2022-12-24T17:09:39.211Z,100129.19
2022-12-24T17:12:06.272Z,100131.34
2022-12-24T17:14:33.083Z,100119.59
2022-12-24T17:16:59.963Z,100124.53
2022-12-24T17:19:26.746Z,100123.16
2022-12-24T17:21:53.539Z,100123.34
2022-12-24T17:24:20.385Z,100130.13
2022-12-24T17:26:47.136Z,100133.47
2022-12-24T17:29:14.779Z,100121.66
2022-12-24T17:31:43.214Z,100130.41
2022-12-24T17:34:10.571Z,100131.59
2022-12-24T17:36:37.429Z,100131.56
2022-12-24T17:39:04.394Z,100130.69
2022-12-24T17:41:31.116Z,100138.25
2022-12-24T17:43:59.416Z,100135.81
2022-12-24T17:46:26.326Z,100143.19
2022-12-24T17:48:53.368Z,100146.94
2022-12-24T17:51:22.562Z,100147.31
2022-12-24T17:53:49.845Z,100143.13
2022-12-24T17:56:17.941Z,100151.31
2022-12-24T17:58:46.161Z,100154.03
2022-12-24T18:01:15.449Z,100161.63
2022-12-24T18:03:42.567Z,100156.00
2022-12-24T18:06:12.975Z,100158.34
2022-12-24T18:08:41.249Z,100171.09
2022-12-24T18:11:20.019Z,100183.28
2022-12-24T18:13:47.711Z,100172.00
2022-12-24T18:16:23.750Z,100180.34
2022-12-24T18:18:53.049Z,100172.84
2022-12-24T18:21:22.228Z,100179.03
2022-12-24T18:23:50.642Z,100177.69
2022-12-24T18:26:19.092Z,100177.31
2022-12-24T18:28:47.370Z,100183.72
2022-12-24T18:31:18.207Z,100188.53
2022-12-24T18:33:46.353Z,100196.53
2022-12-24T18:36:13.691Z,100184.97
2022-12-24T18:38:40.899Z,100192.56
2022-12-24T18:41:11.747Z,100193.38
2022-12-24T18:43:38.784Z,100188.00
2022-12-24T18:46:16.714Z,100193.53
2022-12-24T18:48:43.567Z,100193.19
2022-12-24T18:51:11.342Z,100195.00
2022-12-24T18:53:38.468Z,100200.97
2022-12-24T18:56:15.846Z,100199.53
2022-12-24T18:58:43.223Z,100211.69
2022-12-24T19:01:12.636Z,100217.88
2022-12-24T19:03:39.493Z,100224.84
2022-12-24T19:06:06.630Z,100225.66
2022-12-24T19:11:20.367Z,100234.44
2022-12-24T19:13:49.139Z,100231.25
2022-12-24T19:16:17.905Z,100224.41
2022-12-24T19:18:44.742Z,100228.75
2022-12-24T19:21:15.972Z,100232.00
2022-12-24T19:23:43.272Z,100238.78
2022-12-24T19:26:12.182Z,100240.94
2022-12-24T19:28:39.410Z,100251.03
2022-12-24T19:31:12.273Z,100254.81
2022-12-24T19:33:45.020Z,100260.00
2022-12-24T19:36:17.526Z,100266.38
2022-12-24T19:38:46.064Z,100265.63
2022-12-24T19:41:22.486Z,100278.31
2022-12-24T19:43:52.041Z,100280.31
2022-12-24T19:46:22.422Z,100274.66
2022-12-24T19:48:52.251Z,100283.63
2022-12-24T19:51:19.360Z,100267.25
2022-12-24T19:53:47.591Z,100261.66
2022-12-24T19:56:19.567Z,100253.72
2022-12-24T19:58:46.930Z,100272.94
2022-12-24T20:01:19.457Z,100279.84
2022-12-24T20:03:47.527Z,100283.97
2022-12-24T20:06:16.410Z,100280.13
2022-12-24T20:08:43.554Z,100280.50
2022-12-24T20:11:16.600Z,100291.41
2022-12-24T20:13:43.913Z,100297.72
2022-12-24T20:16:14.005Z,100288.97
2022-12-24T20:18:41.115Z,100288.97
2022-12-24T20:21:10.957Z,100295.78
2022-12-24T20:23:41.679Z,100305.31
2022-12-24T20:26:12.171Z,100298.78
2022-12-24T20:28:40.073Z,100297.28
2022-12-24T20:31:18.214Z,100307.81
2022-12-24T20:33:46.165Z,100306.28
2022-12-24T20:36:17.287Z,100312.31
2022-12-24T20:38:44.719Z,100311.63
2022-12-24T20:41:13.868Z,100311.91
2022-12-24T20:43:47.406Z,100315.72
2022-12-24T20:46:15.924Z,100311.13
2022-12-24T20:48:43.196Z,100307.56
2022-12-24T20:51:19.349Z,100311.13
2022-12-24T20:53:50.276Z,100306.75
2022-12-24T20:56:18.529Z,100311.94
2022-12-24T20:58:46.038Z,100316.50
2022-12-24T21:01:17.630Z,100311.06
2022-12-24T21:03:44.819Z,100317.69
2022-12-24T21:06:11.656Z,100316.09
2022-12-24T21:08:38.533Z,100307.66
2022-12-24T21:11:34.128Z,100304.03
2022-12-24T21:14:02.351Z,100298.34
2022-12-24T21:16:30.832Z,100303.63
2022-12-24T21:18:57.625Z,100303.56
2022-12-24T21:21:24.420Z,100300.69
2022-12-24T21:23:51.250Z,100294.28
2022-12-24T21:26:18.052Z,100298.81
2022-12-24T21:28:45.584Z,100302.22
2022-12-24T21:31:14.600Z,100315.19
2022-12-24T21:33:42.167Z,100295.53
2022-12-24T21:36:10.197Z,100319.59
2022-12-24T21:38:37.021Z,100323.44
2022-12-24T21:41:19.034Z,100324.44
2022-12-24T21:43:46.832Z,100328.72
2022-12-24T21:46:17.502Z,100315.75
2022-12-24T21:49:02.841Z,100312.81
2022-12-24T21:51:30.233Z,100311.38
2022-12-24T21:54:15.527Z,100307.38
2022-12-24T21:57:01.469Z,100296.13
2022-12-24T21:59:29.003Z,100304.47
2022-12-24T22:01:56.981Z,100316.78
2022-12-24T22:04:24.865Z,100309.53
2022-12-24T22:07:10.894Z,100309.91
2022-12-24T22:09:59.180Z,100314.19
2022-12-24T22:12:29.149Z,100297.75
2022-12-24T22:14:55.927Z,100305.81
2022-12-24T22:17:25.489Z,100303.03
2022-12-24T22:19:53.616Z,100302.81
2022-12-24T22:22:20.554Z,100299.91
2022-12-24T22:24:47.336Z,100297.16
2022-12-24T22:27:14.071Z,100298.94
2022-12-24T22:29:40.819Z,100297.16
2022-12-24T22:32:07.683Z,100291.97
2022-12-24T22:34:35.262Z,100290.00
2022-12-24T22:37:02.195Z,100284.59
2022-12-24T22:39:28.910Z,100288.81
2022-12-24T22:41:57.953Z,100288.81
2022-12-24T22:44:25.127Z,100296.41
2022-12-24T22:46:51.949Z,100302.22
2022-12-24T22:49:18.708Z,100303.66
2022-12-24T22:51:45.452Z,100318.81
2022-12-24T22:54:12.266Z,100323.63
2022-12-24T22:56:41.559Z,100320.06
2022-12-24T22:59:09.634Z,100315.69
2022-12-24T23:01:41.064Z,100319.25
2022-12-24T23:04:08.221Z,100303.56
2022-12-24T23:06:35.486Z,100305.75
2022-12-24T23:09:03.926Z,100307.38
2022-12-24T23:11:31.027Z,100306.22
2022-12-24T23:14:16.296Z,100315.75
2022-12-24T23:16:43.039Z,100326.50
2022-12-24T23:19:10.855Z,100334.47
2022-12-24T23:21:38.561Z,100332.38
2022-12-24T23:24:07.472Z,100340.78
2022-12-24T23:26:34.458Z,100344.16
2022-12-24T23:29:01.222Z,100349.53
2022-12-24T23:31:28.181Z,100352.91
2022-12-24T23:33:55.793Z,100344.16
2022-12-24T23:36:22.667Z,100346.94
2022-12-24T23:38:49.745Z,100351.94
2022-12-24T23:41:19.083Z,100359.88
2022-12-24T23:43:46.458Z,100359.09
2022-12-24T23:46:15.496Z,100367.47
2022-12-24T23:48:42.675Z,100360.88
2022-12-24T23:51:23.628Z,100375.19
2022-12-24T23:53:52.159Z,100373.81
2022-12-24T23:56:19.252Z,100374.63
2022-12-24T23:58:46.780Z,100365.06
